Time;durP1;ratioP1;P1;durP2;ratioP2;P2;SDS_P1;SDS_P2;PMS_P1;PMS_P2;Temp;Humidity;BMP_temperature;BMP_pressure;BME280_temperature;BME280_humidity;BME280_pressure;Samples;Min_cycle;Max_cycle;Signal;HPM_P1;HPM_P2
2022/02/23 00:00:58;;;;;;;29.42;12.55;;;;;;;;;;5093992;28;20024;-62
2022/02/23 00:03:25;;;;;;;28.17;13.00;;;;;;;;;;5092302;28;20050;-70
2022/02/23 00:05:51;;;;;;;29.48;12.52;;;;;;;;;;5093801;28;20019;-69
2022/02/23 00:08:17;;;;;;;30.50;13.63;;;;;;;;;;5093484;28;20576;-69
2022/02/23 00:10:42;;;;;;;30.65;13.15;;;;;;;;;;5093233;28;20031;-69
2022/02/23 00:13:07;;;;;;;25.88;11.93;;;;;;;;;;5092258;28;20019;-69
2022/02/23 00:15:33;;;;;;;26.95;11.77;;;;;;;;;;5092423;28;20047;-61
2022/02/23 00:18:01;;;;;;;27.42;11.02;;;;;;;;;;5093453;28;20023;-69
2022/02/23 00:20:27;;;;;;;20.77;10.00;;;;;;;;;;5092413;28;20039;-69
2022/02/23 00:22:52;;;;;;;29.05;11.90;;;;;;;;;;5093714;28;20030;-70
2022/02/23 00:25:18;;;;;;;25.42;11.05;;;;;;;;;;5093715;28;20351;-70
2022/02/23 00:27:44;;;;;;;22.52;10.60;;;;;;;;;;5093963;28;20020;-70
2022/02/23 00:30:09;;;;;;;22.48;10.13;;;;;;;;;;5093213;28;20393;-69
2022/02/23 00:32:35;;;;;;;24.42;10.70;;;;;;;;;;5093365;28;20020;-69
2022/02/23 00:35:00;;;;;;;22.70;9.65;;;;;;;;;;5092128;28;20183;-70
2022/02/23 00:37:25;;;;;;;25.33;10.15;;;;;;;;;;5092439;28;20040;-69
2022/02/23 00:39:51;;;;;;;21.90;10.00;;;;;;;;;;5092388;28;20032;-69
2022/02/23 00:42:16;;;;;;;23.33;10.20;;;;;;;;;;5093587;28;20027;-69
2022/02/23 00:44:44;;;;;;;22.77;9.98;;;;;;;;;;5093207;28;20028;-69
2022/02/23 00:47:10;;;;;;;23.02;10.82;;;;;;;;;;5093235;28;20019;-69
2022/02/23 00:49:40;;;;;;;22.73;10.85;;;;;;;;;;5092884;28;20040;-69
2022/02/23 00:52:06;;;;;;;25.65;11.02;;;;;;;;;;5093354;28;20185;-69
2022/02/23 00:54:32;;;;;;;22.65;11.10;;;;;;;;;;5093436;28;20027;-69
2022/02/23 00:56:58;;;;;;;23.00;9.93;;;;;;;;;;5096161;28;20058;-70
2022/02/23 00:59:23;;;;;;;26.90;10.73;;;;;;;;;;5096358;28;20024;-69
2022/02/23 01:01:50;;;;;;;23.67;9.77;;;;;;;;;;5097344;28;20035;-70
2022/02/23 01:04:15;;;;;;;17.23;7.78;;;;;;;;;;5097374;28;20020;-69
2022/02/23 01:06:41;;;;;;;19.83;8.52;;;;;;;;;;5097322;28;20027;-70
2022/02/23 01:09:06;;;;;;;16.88;7.32;;;;;;;;;;5096904;28;20116;-69
2022/02/23 01:11:33;;;;;;;20.13;8.68;;;;;;;;;;5097145;28;20031;-69
2022/02/23 01:13:59;;;;;;;13.35;5.85;;;;;;;;;;5097041;28;20024;-69
2022/02/23 01:16:24;;;;;;;18.77;7.82;;;;;;;;;;5096926;28;20012;-69
2022/02/23 01:18:50;;;;;;;22.05;8.07;;;;;;;;;;5096913;28;20039;-69
2022/02/23 01:21:15;;;;;;;14.45;6.70;;;;;;;;;;5096975;28;20031;-70
2022/02/23 01:23:41;;;;;;;15.82;6.90;;;;;;;;;;5096609;28;20036;-62
2022/02/23 01:26:06;;;;;;;19.17;7.60;;;;;;;;;;5096733;28;20076;-61
2022/02/23 01:28:37;;;;;;;18.88;7.90;;;;;;;;;;5095389;28;20110;-61
2022/02/23 01:31:02;;;;;;;15.07;6.95;;;;;;;;;;5095254;28;20032;-61
2022/02/23 01:33:28;;;;;;;17.90;6.82;;;;;;;;;;5096467;28;20423;-61
2022/02/23 01:35:53;;;;;;;14.43;5.65;;;;;;;;;;5096673;28;20031;-61
2022/02/23 01:38:25;;;;;;;12.65;5.55;;;;;;;;;;5096734;28;20103;-62
2022/02/23 01:40:51;;;;;;;13.50;5.95;;;;;;;;;;5096365;28;20036;-62
2022/02/23 01:43:16;;;;;;;12.65;5.38;;;;;;;;;;5095168;28;20024;-62
2022/02/23 01:45:42;;;;;;;11.18;5.55;;;;;;;;;;5096059;28;20039;-62
2022/02/23 01:48:07;;;;;;;12.20;5.07;;;;;;;;;;5096705;28;20102;-61
2022/02/23 01:50:33;;;;;;;13.95;5.72;;;;;;;;;;5096127;28;20040;-62
2022/02/23 01:52:59;;;;;;;14.05;6.00;;;;;;;;;;5096133;28;20024;-69
2022/02/23 01:55:26;;;;;;;11.65;5.18;;;;;;;;;;5096434;28;20036;-69
2022/02/23 01:57:51;;;;;;;12.95;5.20;;;;;;;;;;5096176;28;20482;-69
2022/02/23 02:00:17;;;;;;;13.27;5.07;;;;;;;;;;5095873;28;20040;-70
2022/02/23 02:02:43;;;;;;;12.95;5.40;;;;;;;;;;5095810;28;20073;-70
2022/02/23 02:05:09;;;;;;;12.40;5.05;;;;;;;;;;5095901;28;20040;-61
2022/02/23 02:07:35;;;;;;;11.07;4.38;;;;;;;;;;5094929;28;20020;-68
2022/02/23 02:10:00;;;;;;;12.30;4.97;;;;;;;;;;5095871;28;20036;-69
2022/02/23 02:12:27;;;;;;;11.20;4.65;;;;;;;;;;5096071;28;20031;-70
2022/02/23 02:14:52;;;;;;;13.93;4.82;;;;;;;;;;5095712;28;20020;-70
2022/02/23 02:17:18;;;;;;;14.32;5.55;;;;;;;;;;5096169;28;20015;-69
2022/02/23 02:19:44;;;;;;;13.63;5.95;;;;;;;;;;5095787;28;20036;-68
2022/02/23 02:22:09;;;;;;;11.40;4.53;;;;;;;;;;5094665;28;20085;-68
2022/02/23 02:24:36;;;;;;;11.23;4.75;;;;;;;;;;5095771;28;20051;-68
2022/02/23 02:27:03;;;;;;;9.82;4.90;;;;;;;;;;5095814;28;20365;-69
2022/02/23 02:29:29;;;;;;;8.90;4.10;;;;;;;;;;5095605;28;20024;-69
2022/02/23 02:31:56;;;;;;;10.63;4.43;;;;;;;;;;5095236;28;20022;-62
2022/02/23 02:34:22;;;;;;;9.20;4.15;;;;;;;;;;5094539;28;20455;-62
2022/02/23 02:36:48;;;;;;;12.23;4.13;;;;;;;;;;5095255;28;20024;-62
2022/02/23 02:39:14;;;;;;;9.05;4.25;;;;;;;;;;5095330;28;20539;-62
2022/02/23 02:41:40;;;;;;;12.38;4.05;;;;;;;;;;5094952;28;20032;-62
2022/02/23 02:44:05;;;;;;;11.77;4.45;;;;;;;;;;5095600;28;20059;-62
2022/02/23 02:46:31;;;;;;;11.13;3.88;;;;;;;;;;5094991;28;20066;-62
2022/02/23 02:48:56;;;;;;;9.57;4.15;;;;;;;;;;5094597;28;20077;-68
2022/02/23 02:51:22;;;;;;;7.43;3.70;;;;;;;;;;5094320;28;20031;-69
2022/02/23 02:53:48;;;;;;;6.45;3.22;;;;;;;;;;5094904;28;20032;-68
2022/02/23 02:56:13;;;;;;;6.88;3.72;;;;;;;;;;5095336;28;20111;-68
2022/02/23 02:58:38;;;;;;;9.10;3.92;;;;;;;;;;5094924;28;20035;-69
2022/02/23 03:01:05;;;;;;;7.65;3.30;;;;;;;;;;5095135;28;20044;-69
2022/02/23 03:03:31;;;;;;;7.53;3.72;;;;;;;;;;5093605;28;20059;-61
2022/02/23 03:05:56;;;;;;;9.48;3.60;;;;;;;;;;5093329;28;20096;-61
2022/02/23 03:08:22;;;;;;;7.25;3.78;;;;;;;;;;5094675;28;20100;-62
2022/02/23 03:10:47;;;;;;;9.30;3.67;;;;;;;;;;5094786;28;20025;-61
2022/02/23 03:13:13;;;;;;;7.80;3.45;;;;;;;;;;5094670;28;20450;-61
2022/02/23 03:15:38;;;;;;;6.18;3.03;;;;;;;;;;5094688;28;20016;-61
2022/02/23 03:18:04;;;;;;;7.85;3.13;;;;;;;;;;5094375;28;20052;-62
2022/02/23 03:20:30;;;;;;;7.43;3.40;;;;;;;;;;5094723;28;20032;-61
2022/02/23 03:22:56;;;;;;;9.45;3.78;;;;;;;;;;5093077;28;20024;-62
2022/02/23 03:25:22;;;;;;;9.13;3.13;;;;;;;;;;5094554;28;20431;-70
2022/02/23 03:27:48;;;;;;;6.95;3.72;;;;;;;;;;5094834;28;20115;-70
2022/02/23 03:30:14;;;;;;;7.22;3.17;;;;;;;;;;5092806;28;20426;-70
2022/02/23 03:32:39;;;;;;;7.55;3.22;;;;;;;;;;5094246;28;20477;-70
2022/02/23 03:35:05;;;;;;;7.85;3.40;;;;;;;;;;5095063;28;20107;-69
2022/02/23 03:37:32;;;;;;;8.38;3.33;;;;;;;;;;5094475;28;20474;-71
2022/02/23 03:39:57;;;;;;;8.63;3.35;;;;;;;;;;5092906;28;20542;-62
2022/02/23 03:42:23;;;;;;;9.70;3.55;;;;;;;;;;5093955;28;20024;-62
2022/02/23 03:44:48;;;;;;;9.63;3.50;;;;;;;;;;5093994;28;20375;-61
2022/02/23 03:47:14;;;;;;;5.25;2.83;;;;;;;;;;5093928;28;20028;-61
2022/02/23 03:49:40;;;;;;;7.63;2.97;;;;;;;;;;5093603;28;20055;-61
2022/02/23 03:52:06;;;;;;;5.30;2.22;;;;;;;;;;5093963;28;20036;-61
2022/02/23 03:54:32;;;;;;;7.53;3.10;;;;;;;;;;5093675;28;20023;-61
2022/02/23 03:56:58;;;;;;;6.93;3.22;;;;;;;;;;5093703;28;20111;-61
2022/02/23 03:59:23;;;;;;;9.35;3.97;;;;;;;;;;5092677;28;20051;-62
2022/02/23 04:01:49;;;;;;;7.68;3.05;;;;;;;;;;5093999;28;20055;-61
2022/02/23 04:04:18;;;;;;;8.25;3.17;;;;;;;;;;5093793;28;20012;-69
2022/02/23 04:06:44;;;;;;;8.30;3.47;;;;;;;;;;5093864;28;20024;-69
2022/02/23 04:09:10;;;;;;;7.90;2.97;;;;;;;;;;5092669;28;20270;-69
2022/02/23 04:11:36;;;;;;;7.40;3.55;;;;;;;;;;5093693;28;20528;-69
2022/02/23 04:14:02;;;;;;;4.80;2.65;;;;;;;;;;5093833;28;20016;-68
2022/02/23 04:16:28;;;;;;;7.47;3.13;;;;;;;;;;5092564;28;20366;-68
2022/02/23 04:18:53;;;;;;;5.53;3.03;;;;;;;;;;5092634;28;20021;-61
2022/02/23 04:21:25;;;;;;;7.28;3.20;;;;;;;;;;5093557;28;20547;-62
2022/02/23 04:23:56;;;;;;;5.72;3.17;;;;;;;;;;5093614;28;20024;-61
2022/02/23 04:26:31;;;;;;;5.80;3.08;;;;;;;;;;5093782;28;20115;-61
2022/02/23 04:28:56;;;;;;;4.55;2.60;;;;;;;;;;5092560;28;20028;-61
2022/02/23 04:31:22;;;;;;;6.68;3.05;;;;;;;;;;5097305;28;20020;-70
2022/02/23 04:33:47;;;;;;;6.80;3.20;;;;;;;;;;5097829;28;20466;-69
2022/02/23 04:36:13;;;;;;;6.43;2.92;;;;;;;;;;5098075;28;20055;-69
2022/02/23 04:38:38;;;;;;;8.13;3.05;;;;;;;;;;5097883;28;20028;-69
2022/02/23 04:41:04;;;;;;;5.60;2.97;;;;;;;;;;5098050;28;20020;-70
2022/02/23 04:43:33;;;;;;;5.03;2.83;;;;;;;;;;5097903;28;20032;-70
2022/02/23 04:46:03;;;;;;;5.78;3.22;;;;;;;;;;5097509;28;20016;-70
2022/02/23 04:48:29;;;;;;;3.97;2.83;;;;;;;;;;5097484;28;20028;-69
2022/02/23 04:50:55;;;;;;;4.65;2.78;;;;;;;;;;5097259;28;20039;-70
2022/02/23 04:53:21;;;;;;;4.05;2.55;;;;;;;;;;5097274;28;20051;-70
2022/02/23 04:55:46;;;;;;;5.22;2.58;;;;;;;;;;5097242;28;20066;-70
2022/02/23 04:58:12;;;;;;;4.15;2.80;;;;;;;;;;5097668;28;20450;-70
2022/02/23 05:00:37;;;;;;;3.53;2.50;;;;;;;;;;5097321;28;20106;-70
2022/02/23 05:03:04;;;;;;;3.03;2.65;;;;;;;;;;5097343;28;20051;-70
2022/02/23 05:05:32;;;;;;;2.88;2.65;;;;;;;;;;5095878;28;20024;-70
2022/02/23 05:07:58;;;;;;;2.78;2.35;;;;;;;;;;5096914;28;20032;-69
2022/02/23 05:10:23;;;;;;;4.75;2.70;;;;;;;;;;5096751;28;20177;-69
2022/02/23 05:12:51;;;;;;;3.83;2.65;;;;;;;;;;5097155;28;20069;-70
2022/02/23 05:15:17;;;;;;;3.13;2.75;;;;;;;;;;5097120;28;20027;-68
2022/02/23 05:17:43;;;;;;;3.50;2.38;;;;;;;;;;5095957;28;20040;-69
2022/02/23 05:20:09;;;;;;;2.50;2.30;;;;;;;;;;5095921;28;20020;-69
2022/02/23 05:22:35;;;;;;;4.35;2.75;;;;;;;;;;5096838;28;20035;-69
2022/02/23 05:25:01;;;;;;;4.85;3.10;;;;;;;;;;5096023;28;20021;-69
2022/02/23 05:27:26;;;;;;;4.00;2.92;;;;;;;;;;5096604;28;20539;-69
2022/02/23 05:29:53;;;;;;;3.83;2.53;;;;;;;;;;5097198;28;20047;-69
2022/02/23 05:32:18;;;;;;;4.35;2.35;;;;;;;;;;5096746;28;20115;-69
2022/02/23 05:34:44;;;;;;;5.35;2.63;;;;;;;;;;5095415;28;20102;-69
2022/02/23 05:37:10;;;;;;;4.22;3.08;;;;;;;;;;5096557;28;20028;-69
2022/02/23 05:39:35;;;;;;;5.00;3.20;;;;;;;;;;5096370;28;20083;-69
2022/02/23 05:42:01;;;;;;;3.13;2.78;;;;;;;;;;5096443;28;20028;-69
2022/02/23 05:44:26;;;;;;;3.33;2.45;;;;;;;;;;5096663;28;20024;-70
2022/02/23 05:46:53;;;;;;;5.20;2.63;;;;;;;;;;5096343;28;20020;-70
2022/02/23 05:49:19;;;;;;;5.38;2.92;;;;;;;;;;5094397;28;20040;-69
2022/02/23 05:51:46;;;;;;;4.65;2.95;;;;;;;;;;5096017;28;20077;-69
2022/02/23 05:54:12;;;;;;;4.57;2.70;;;;;;;;;;5094880;28;20024;-69
2022/02/23 05:56:45;;;;;;;3.05;2.72;;;;;;;;;;5096044;28;20089;-70
2022/02/23 05:59:10;;;;;;;6.40;3.13;;;;;;;;;;5095838;28;20438;-70
2022/02/23 06:01:36;;;;;;;5.13;3.05;;;;;;;;;;5095814;28;20055;-70
2022/02/23 06:04:02;;;;;;;5.00;3.90;;;;;;;;;;5094681;28;20080;-69
2022/02/23 06:06:27;;;;;;;6.57;4.63;;;;;;;;;;5094687;28;20102;-69
2022/02/23 06:08:53;;;;;;;5.20;3.47;;;;;;;;;;5096085;28;20035;-69
2022/02/23 06:11:20;;;;;;;5.63;3.88;;;;;;;;;;5095733;28;20020;-69
2022/02/23 06:13:51;;;;;;;6.53;4.00;;;;;;;;;;5095902;28;20466;-69
2022/02/23 06:16:20;;;;;;;6.97;3.95;;;;;;;;;;5095824;28;20032;-69
2022/02/23 06:18:45;;;;;;;8.10;3.72;;;;;;;;;;5094472;28;20047;-69
2022/02/23 06:21:11;;;;;;;4.85;3.15;;;;;;;;;;5095793;28;20597;-69
2022/02/23 06:23:37;;;;;;;5.13;3.45;;;;;;;;;;5094298;28;20020;-70
2022/02/23 06:26:04;;;;;;;4.50;2.67;;;;;;;;;;5094294;28;20027;-70
2022/02/23 06:28:29;;;;;;;5.57;3.05;;;;;;;;;;5094119;28;20035;-70
2022/02/23 06:30:55;;;;;;;3.58;2.50;;;;;;;;;;5095212;28;20032;-70
2022/02/23 06:33:22;;;;;;;3.30;2.83;;;;;;;;;;5095755;28;20420;-70
2022/02/23 06:35:50;;;;;;;3.40;2.65;;;;;;;;;;5095282;28;20123;-70
2022/02/23 06:38:15;;;;;;;5.28;3.47;;;;;;;;;;5095326;28;20008;-69
2022/02/23 06:40:41;;;;;;;3.67;2.55;;;;;;;;;;5095554;28;20394;-70
2022/02/23 06:43:14;;;;;;;5.07;3.08;;;;;;;;;;5095026;28;20035;-70
2022/02/23 06:45:39;;;;;;;4.30;2.90;;;;;;;;;;5095006;28;20028;-69
2022/02/23 06:48:04;;;;;;;3.22;2.22;;;;;;;;;;5093654;28;20442;-69
2022/02/23 06:50:32;;;;;;;2.90;2.60;;;;;;;;;;5093202;28;20044;-69
2022/02/23 06:52:58;;;;;;;3.40;2.08;;;;;;;;;;5094161;28;20102;-70
2022/02/23 06:55:24;;;;;;;3.47;2.58;;;;;;;;;;5093427;28;20435;-71
2022/02/23 06:57:49;;;;;;;3.65;1.88;;;;;;;;;;5094726;28;20032;-70
2022/02/23 07:00:15;;;;;;;2.38;2.17;;;;;;;;;;5093432;28;20062;-70
2022/02/23 07:02:40;;;;;;;1.65;1.33;;;;;;;;;;5094545;28;20012;-69
2022/02/23 07:05:07;;;;;;;3.65;2.30;;;;;;;;;;5094602;28;20027;-69
2022/02/23 07:07:32;;;;;;;3.85;2.58;;;;;;;;;;5094645;28;20488;-69
2022/02/23 07:09:58;;;;;;;1.40;1.30;;;;;;;;;;5094463;28;20059;-69
2022/02/23 07:12:23;;;;;;;2.85;1.85;;;;;;;;;;5094387;28;20047;-69
2022/02/23 07:14:49;;;;;;;3.47;1.95;;;;;;;;;;5093921;28;20020;-69
2022/02/23 07:17:14;;;;;;;2.40;1.50;;;;;;;;;;5094310;28;20393;-69
2022/02/23 07:19:40;;;;;;;2.33;1.27;;;;;;;;;;5092896;28;20028;-69
2022/02/23 07:22:05;;;;;;;3.30;1.95;;;;;;;;;;5094116;28;20393;-70
2022/02/23 07:24:32;;;;;;;3.25;1.55;;;;;;;;;;5094159;28;20097;-69
2022/02/23 07:26:58;;;;;;;4.65;2.05;;;;;;;;;;5094163;28;20016;-69
2022/02/23 07:29:27;;;;;;;2.05;1.52;;;;;;;;;;5092811;28;20482;-71
2022/02/23 07:31:53;;;;;;;3.50;1.77;;;;;;;;;;5094110;28;20462;-69
2022/02/23 07:34:18;;;;;;;4.38;1.98;;;;;;;;;;5092803;28;20029;-70
2022/02/23 07:36:44;;;;;;;2.05;1.42;;;;;;;;;;5094040;28;20016;-69
2022/02/23 07:39:10;;;;;;;3.13;1.65;;;;;;;;;;5094018;28;20035;-69
2022/02/23 07:41:35;;;;;;;3.53;1.45;;;;;;;;;;5093859;28;20024;-69
2022/02/23 07:44:01;;;;;;;3.05;1.48;;;;;;;;;;5093654;28;20047;-69
2022/02/23 07:46:28;;;;;;;2.65;1.33;;;;;;;;;;5093780;28;20028;-69
2022/02/23 07:48:58;;;;;;;2.40;1.85;;;;;;;;;;5093356;28;20086;-69
2022/02/23 07:51:24;;;;;;;2.92;1.75;;;;;;;;;;5093645;28;20055;-69
2022/02/23 07:53:50;;;;;;;4.63;1.77;;;;;;;;;;5093531;28;20571;-69
2022/02/23 07:56:16;;;;;;;5.43;1.85;;;;;;;;;;5093685;28;20115;-69
2022/02/23 07:58:42;;;;;;;1.33;1.02;;;;;;;;;;5093531;28;20047;-69
2022/02/23 08:01:25;;;;;;;2.63;1.45;;;;;;;;;;5092314;28;20035;-70
2022/02/23 08:03:51;;;;;;;6.72;2.03;;;;;;;;;;5093340;28;20038;-69
2022/02/23 08:06:17;;;;;;;4.70;1.80;;;;;;;;;;5092954;28;20020;-69
2022/02/23 08:08:42;;;;;;;3.25;1.30;;;;;;;;;;5092957;28;20039;-70
2022/02/23 08:11:08;;;;;;;3.10;1.63;;;;;;;;;;5093465;28;20386;-69
2022/02/23 08:13:33;;;;;;;3.00;1.75;;;;;;;;;;5094283;28;20024;-69
2022/02/23 08:21:28;;;;;;;4.03;1.42;;;;;;;;;;5093583;28;20509;-69
2022/02/23 08:23:54;;;;;;;4.38;1.55;;;;;;;;;;5093343;28;20035;-69
2022/02/23 08:26:19;;;;;;;6.55;1.88;;;;;;;;;;5093338;28;20028;-69
2022/02/23 08:28:45;;;;;;;3.83;1.23;;;;;;;;;;5093299;28;20031;-69
2022/02/23 08:31:10;;;;;;;2.15;1.30;;;;;;;;;;5093131;28;20040;-69
2022/02/23 08:33:36;;;;;;;4.97;2.00;;;;;;;;;;5093188;28;20020;-69
2022/02/23 08:36:02;;;;;;;5.15;1.75;;;;;;;;;;5091936;28;20398;-69
2022/02/23 08:38:27;;;;;;;3.03;1.45;;;;;;;;;;5093218;28;20012;-69
2022/02/23 08:40:53;;;;;;;3.40;1.73;;;;;;;;;;5093195;28;20382;-69
2022/02/23 08:43:18;;;;;;;7.75;2.20;;;;;;;;;;5093139;28;20110;-69
2022/02/23 08:45:43;;;;;;;5.57;1.67;;;;;;;;;;5093152;28;20020;-69
2022/02/23 08:48:09;;;;;;;5.65;1.52;;;;;;;;;;5093157;28;20024;-70
2022/02/23 08:50:36;;;;;;;4.57;2.03;;;;;;;;;;5091674;28;20139;-69
2022/02/23 08:53:02;;;;;;;3.65;1.73;;;;;;;;;;5091806;28;20047;-69
2022/02/23 08:55:27;;;;;;;4.07;1.55;;;;;;;;;;5092823;28;20067;-69
2022/02/23 08:57:53;;;;;;;6.32;1.88;;;;;;;;;;5092888;28;20459;-69
2022/02/23 09:00:18;;;;;;;2.83;1.63;;;;;;;;;;5092925;28;20020;-69
2022/02/23 09:02:44;;;;;;;5.05;2.20;;;;;;;;;;5092964;28;20023;-69
2022/02/23 09:05:09;;;;;;;6.82;2.85;;;;;;;;;;5091499;28;20032;-69
2022/02/23 09:07:36;;;;;;;3.67;1.83;;;;;;;;;;5092900;28;20474;-69
2022/02/23 09:10:03;;;;;;;5.63;1.95;;;;;;;;;;5092968;28;20470;-69
2022/02/23 09:12:29;;;;;;;5.95;1.58;;;;;;;;;;5092894;28;20020;-69
2022/02/23 09:14:54;;;;;;;4.72;1.60;;;;;;;;;;5092825;28;20155;-69
2022/02/23 09:17:20;;;;;;;5.03;1.92;;;;;;;;;;5095892;28;20031;-70
2022/02/23 09:19:49;;;;;;;4.03;1.63;;;;;;;;;;5096554;28;20039;-69
2022/02/23 09:22:15;;;;;;;3.80;2.00;;;;;;;;;;5096707;28;20042;-69
2022/02/23 09:24:40;;;;;;;3.83;1.73;;;;;;;;;;5096569;28;20474;-69
2022/02/23 09:27:06;;;;;;;6.22;1.75;;;;;;;;;;5096427;28;20024;-70
2022/02/23 09:29:36;;;;;;;4.22;1.55;;;;;;;;;;5096416;28;20161;-69
2022/02/23 09:32:03;;;;;;;5.32;1.85;;;;;;;;;;5096406;28;20032;-69
2022/02/23 09:34:29;;;;;;;5.05;1.85;;;;;;;;;;5096366;28;20472;-69
2022/02/23 09:36:54;;;;;;;3.60;1.65;;;;;;;;;;5096282;28;20020;-69
2022/02/23 09:39:20;;;;;;;6.45;2.03;;;;;;;;;;5095055;28;20012;-69
2022/02/23 09:41:46;;;;;;;3.40;1.63;;;;;;;;;;5096204;28;20454;-69
2022/02/23 09:44:14;;;;;;;3.35;1.65;;;;;;;;;;5094923;28;20538;-69
2022/02/23 09:46:40;;;;;;;2.58;1.70;;;;;;;;;;5096167;28;20439;-69
2022/02/23 09:49:06;;;;;;;3.50;1.45;;;;;;;;;;5095629;28;20055;-69
2022/02/23 09:51:32;;;;;;;5.72;1.90;;;;;;;;;;5096090;28;20058;-69
2022/02/23 09:53:57;;;;;;;4.82;2.00;;;;;;;;;;5095984;28;20040;-69
2022/02/23 09:56:25;;;;;;;4.28;1.95;;;;;;;;;;5095832;28;20446;-69
2022/02/23 09:58:53;;;;;;;6.40;2.67;;;;;;;;;;5095944;28;20039;-69
2022/02/23 10:01:21;;;;;;;5.18;2.10;;;;;;;;;;5094765;28;20035;-69
2022/02/23 10:03:48;;;;;;;2.90;1.50;;;;;;;;;;5095963;28;20074;-69
2022/02/23 10:06:18;;;;;;;3.97;1.73;;;;;;;;;;5095781;28;20025;-69
2022/02/23 10:08:43;;;;;;;4.03;1.50;;;;;;;;;;5095722;28;20059;-69
2022/02/23 10:11:16;;;;;;;3.95;1.50;;;;;;;;;;5095478;28;20052;-71
2022/02/23 10:13:51;;;;;;;2.67;1.27;;;;;;;;;;5095615;28;20047;-69
2022/02/23 10:16:17;;;;;;;5.45;1.90;;;;;;;;;;5094243;28;20024;-69
2022/02/23 10:18:42;;;;;;;3.95;1.83;;;;;;;;;;5095468;28;20024;-69
2022/02/23 10:21:08;;;;;;;5.82;1.92;;;;;;;;;;5095467;28;20123;-69
2022/02/23 10:23:33;;;;;;;5.45;1.80;;;;;;;;;;5095358;28;20016;-69
2022/02/23 10:26:01;;;;;;;1.67;0.90;;;;;;;;;;5095384;28;20528;-69
2022/02/23 10:28:32;;;;;;;4.30;1.63;;;;;;;;;;5094485;28;20051;-69
2022/02/23 10:30:59;;;;;;;2.33;1.25;;;;;;;;;;5094016;28;20035;-69
2022/02/23 10:33:26;;;;;;;4.97;1.75;;;;;;;;;;5095239;28;20013;-69
2022/02/23 10:35:58;;;;;;;4.10;1.88;;;;;;;;;;5095328;28;20103;-69
2022/02/23 10:38:27;;;;;;;3.67;1.85;;;;;;;;;;5095207;28;20029;-69
2022/02/23 10:40:54;;;;;;;2.88;1.52;;;;;;;;;;5093650;28;20386;-69
2022/02/23 10:43:47;;;;;;;5.15;1.77;;;;;;;;;;5094958;28;20035;-69
2022/02/23 10:46:15;;;;;;;7.82;2.13;;;;;;;;;;5094221;28;20119;-69
2022/02/23 10:48:48;;;;;;;4.53;2.00;;;;;;;;;;5094532;28;20561;-69
2022/02/23 10:51:16;;;;;;;3.90;1.27;;;;;;;;;;5094712;28;20038;-69
2022/02/23 10:53:43;;;;;;;4.97;1.88;;;;;;;;;;5093518;28;20032;-69
2022/02/23 10:56:21;;;;;;;3.92;1.55;;;;;;;;;;5094806;28;20547;-69
2022/02/23 10:58:47;;;;;;;5.45;2.00;;;;;;;;;;5094883;28;20025;-69
2022/02/23 11:01:12;;;;;;;3.13;1.38;;;;;;;;;;5094657;28;20080;-69
2022/02/23 11:03:38;;;;;;;3.42;1.75;;;;;;;;;;5094727;28;20024;-69
2022/02/23 11:06:05;;;;;;;4.45;1.88;;;;;;;;;;5094515;28;20081;-69
2022/02/23 11:08:30;;;;;;;4.43;1.40;;;;;;;;;;5094494;28;20042;-69
2022/02/23 11:10:56;;;;;;;3.85;1.67;;;;;;;;;;5094439;28;20028;-69
2022/02/23 11:13:22;;;;;;;4.75;1.65;;;;;;;;;;5094405;28;20024;-69
2022/02/23 11:15:49;;;;;;;3.35;1.60;;;;;;;;;;5094385;28;20016;-69
2022/02/23 11:18:16;;;;;;;3.33;1.60;;;;;;;;;;5093122;28;20025;-69
2022/02/23 11:20:45;;;;;;;4.35;2.13;;;;;;;;;;5092954;28;20541;-69
2022/02/23 11:23:18;;;;;;;4.05;1.30;;;;;;;;;;5094353;28;20028;-70
2022/02/23 11:25:45;;;;;;;2.35;1.25;;;;;;;;;;5094204;28;20470;-69
2022/02/23 11:28:23;;;;;;;1.55;1.02;;;;;;;;;;5094141;28;20023;-69
2022/02/23 11:30:51;;;;;;;5.40;1.90;;;;;;;;;;5094035;28;20123;-69
2022/02/23 11:33:20;;;;;;;5.72;1.48;;;;;;;;;;5094143;28;20020;-69
2022/02/23 11:35:50;;;;;;;4.03;1.63;;;;;;;;;;5092853;28;20034;-69
2022/02/23 11:38:17;;;;;;;2.83;1.50;;;;;;;;;;5094046;28;20024;-69
2022/02/23 11:40:52;;;;;;;3.35;1.45;;;;;;;;;;5093800;28;20012;-69
2022/02/23 11:43:37;;;;;;;4.55;1.45;;;;;;;;;;5094284;28;20028;-69
2022/02/23 11:46:09;;;;;;;3.67;1.58;;;;;;;;;;5093768;28;20409;-69
2022/02/23 11:48:53;;;;;;;3.15;1.40;;;;;;;;;;5093604;28;20035;-69
2022/02/23 11:51:29;;;;;;;6.07;1.52;;;;;;;;;;5093931;28;20039;-69
2022/02/23 11:53:55;;;;;;;4.90;1.50;;;;;;;;;;5092549;28;20032;-69
2022/02/23 11:56:21;;;;;;;4.45;1.80;;;;;;;;;;5093780;28;20023;-70
2022/02/23 11:58:47;;;;;;;3.42;1.40;;;;;;;;;;5093706;28;20385;-69
2022/02/23 12:01:14;;;;;;;3.35;1.70;;;;;;;;;;5093565;28;20050;-69
2022/02/23 12:03:42;;;;;;;3.50;1.27;;;;;;;;;;5093534;28;20085;-69
2022/02/23 12:06:09;;;;;;;3.75;1.70;;;;;;;;;;5093536;28;20024;-69
2022/02/23 12:08:44;;;;;;;3.78;1.30;;;;;;;;;;5092228;28;20032;-69
2022/02/23 12:11:10;;;;;;;2.80;1.20;;;;;;;;;;5092279;28;20512;-69
2022/02/23 12:13:55;;;;;;;4.97;1.88;;;;;;;;;;5092215;28;20020;-69
2022/02/23 12:16:21;;;;;;;2.45;1.65;;;;;;;;;;5093378;28;20036;-69
2022/02/23 12:18:49;;;;;;;7.13;1.77;;;;;;;;;;5093335;28;20107;-69
2022/02/23 12:21:15;;;;;;;4.63;1.90;;;;;;;;;;5093396;28;20032;-69
2022/02/23 12:23:41;;;;;;;5.40;1.77;;;;;;;;;;5093348;28;20036;-69
2022/02/23 12:26:07;;;;;;;6.53;2.05;;;;;;;;;;5092109;28;20032;-69
2022/02/23 12:28:37;;;;;;;6.45;1.95;;;;;;;;;;5093246;28;20026;-69
2022/02/23 12:31:04;;;;;;;2.67;1.40;;;;;;;;;;5093105;28;20028;-69
2022/02/23 12:33:33;;;;;;;5.43;1.85;;;;;;;;;;5091905;28;20629;-69
2022/02/23 12:36:00;;;;;;;4.47;1.55;;;;;;;;;;5093191;28;20439;-69
2022/02/23 12:38:28;;;;;;;3.20;1.90;;;;;;;;;;5091915;28;20052;-69
2022/02/23 12:40:54;;;;;;;4.45;1.73;;;;;;;;;;5092706;28;20439;-69
2022/02/23 12:43:19;;;;;;;7.57;1.90;;;;;;;;;;5092848;28;20063;-69
2022/02/23 12:45:50;;;;;;;3.60;1.83;;;;;;;;;;5092255;28;20059;-69
2022/02/23 12:48:15;;;;;;;5.97;1.92;;;;;;;;;;5093301;28;20090;-69
2022/02/23 12:50:41;;;;;;;6.20;2.13;;;;;;;;;;5093494;28;20044;-69
2022/02/23 12:53:08;;;;;;;2.75;1.40;;;;;;;;;;5097277;28;20382;-69
2022/02/23 12:55:33;;;;;;;4.43;1.70;;;;;;;;;;5097413;28;20008;-69
2022/02/23 12:58:00;;;;;;;5.25;1.73;;;;;;;;;;5097684;28;20035;-70
2022/02/23 13:00:29;;;;;;;3.90;1.73;;;;;;;;;;5096178;28;20012;-69
2022/02/23 13:02:55;;;;;;;4.20;2.08;;;;;;;;;;5097446;28;20101;-69
2022/02/23 13:05:25;;;;;;;2.47;1.58;;;;;;;;;;5097345;28;20103;-70
2022/02/23 13:07:54;;;;;;;5.75;1.77;;;;;;;;;;5097307;28;20111;-69
2022/02/23 13:10:20;;;;;;;5.18;1.50;;;;;;;;;;5096968;28;20013;-69
2022/02/23 13:12:45;;;;;;;4.13;1.60;;;;;;;;;;5097419;28;20028;-69
2022/02/23 13:15:11;;;;;;;3.50;1.42;;;;;;;;;;5097157;28;20017;-69
2022/02/23 13:17:37;;;;;;;4.45;1.70;;;;;;;;;;5096702;28;20024;-69
2022/02/23 13:20:04;;;;;;;2.72;1.55;;;;;;;;;;5095404;28;20190;-69
2022/02/23 13:22:33;;;;;;;4.47;1.80;;;;;;;;;;5096681;28;20036;-69
2022/02/23 13:24:59;;;;;;;2.83;1.75;;;;;;;;;;5095343;28;20378;-69
2022/02/23 13:27:29;;;;;;;5.10;1.80;;;;;;;;;;5096618;28;20036;-69
2022/02/23 13:29:56;;;;;;;2.53;1.27;;;;;;;;;;5096595;28;20432;-69
2022/02/23 13:32:26;;;;;;;8.23;2.15;;;;;;;;;;5096341;28;20493;-69
2022/02/23 13:34:52;;;;;;;;;;;;;;;;;;5096493;28;20470;-69
2022/02/23 13:37:20;;;;;;;3.88;1.50;;;;;;;;;;5096441;28;19915;-69
2022/02/23 13:39:45;;;;;;;4.80;1.50;;;;;;;;;;5096180;28;20363;-69
2022/02/23 13:42:13;;;;;;;4.22;1.70;;;;;;;;;;5096186;28;20027;-69
2022/02/23 13:44:40;;;;;;;4.00;1.60;;;;;;;;;;5096204;28;20028;-69
2022/02/23 13:47:05;;;;;;;2.08;1.35;;;;;;;;;;5096176;28;20024;-69
2022/02/23 13:49:31;;;;;;;3.85;1.52;;;;;;;;;;5095630;28;20044;-61
2022/02/23 13:51:58;;;;;;;5.57;1.70;;;;;;;;;;5095912;28;20116;-62
2022/02/23 13:54:29;;;;;;;2.38;1.10;;;;;;;;;;5095821;28;20043;-61
2022/02/23 13:56:55;;;;;;;3.45;1.58;;;;;;;;;;5095679;28;20424;-61
2022/02/23 13:59:23;;;;;;;4.93;1.52;;;;;;;;;;5095848;28;20012;-62
2022/02/23 14:02:02;;;;;;;3.40;1.33;;;;;;;;;;5095332;28;20028;-62
2022/02/23 14:04:34;;;;;;;3.50;1.48;;;;;;;;;;5095169;28;20024;-62
2022/02/23 14:06:59;;;;;;;4.40;1.60;;;;;;;;;;5095890;28;20135;-61
2022/02/23 14:09:25;;;;;;;3.50;1.27;;;;;;;;;;5095878;28;20509;-61
2022/02/23 14:11:50;;;;;;;5.45;2.17;;;;;;;;;;5095510;28;20035;-61
2022/02/23 14:14:17;;;;;;;3.47;1.58;;;;;;;;;;5095585;28;20016;-61
2022/02/23 14:16:45;;;;;;;3.42;1.35;;;;;;;;;;5095697;28;20488;-61
2022/02/23 14:19:15;;;;;;;3.42;1.48;;;;;;;;;;5095644;28;20028;-61
2022/02/23 14:21:45;;;;;;;3.15;1.40;;;;;;;;;;5095485;28;20062;-61
2022/02/23 14:24:15;;;;;;;3.05;1.67;;;;;;;;;;5094139;28;20027;-62
2022/02/23 14:26:51;;;;;;;4.05;1.83;;;;;;;;;;5095517;28;20024;-61
2022/02/23 14:29:17;;;;;;;3.75;1.33;;;;;;;;;;5095404;28;20028;-62
2022/02/23 14:31:43;;;;;;;4.53;1.88;;;;;;;;;;5094442;28;20032;-61
2022/02/23 14:34:17;;;;;;;3.88;1.75;;;;;;;;;;5093159;28;20367;-62
2022/02/23 14:36:43;;;;;;;3.92;1.63;;;;;;;;;;5095219;28;20043;-62
2022/02/23 14:39:08;;;;;;;3.83;1.40;;;;;;;;;;5094646;28;20008;-61
2022/02/23 14:41:34;;;;;;;4.95;1.23;;;;;;;;;;5094953;28;20123;-62
2022/02/23 14:44:00;;;;;;;1.95;1.13;;;;;;;;;;5094797;28;20030;-62